Time;durP1;ratioP1;P1;durP2;ratioP2;P2;SDS_P1;SDS_P2;PMS_P1;PMS_P2;Temp;Humidity;BMP_temperature;BMP_pressure;BME280_temperature;BME280_humidity;BME280_pressure;Samples;Min_cycle;Max_cycle;Signal;HPM_P1;HPM_P2
2022/04/26 03:36:36;;;;;;;6.85;3.70;;;18.90;62.60;;;;;;5032441;28;20036;-68
2022/04/26 03:39:01;;;;;;;6.53;4.10;;;18.90;62.70;;;;;;5030955;28;20029;-69
2022/04/26 03:41:28;;;;;;;5.80;3.70;;;18.90;62.60;;;;;;5030856;28;20051;-69
2022/04/26 03:43:53;;;;;;;6.65;3.13;;;18.90;62.70;;;;;;5030997;28;20021;-69
2022/04/26 03:46:19;;;;;;;6.40;3.50;;;18.90;62.60;;;;;;5032100;28;20030;-69
2022/04/26 03:48:44;;;;;;;5.97;3.42;;;18.90;63.70;;;;;;5030790;28;20026;-69
2022/04/26 03:51:10;;;;;;;5.00;3.78;;;18.90;62.70;;;;;;5031989;28;20057;-69
2022/04/26 03:53:36;;;;;;;6.05;3.25;;;18.90;62.70;;;;;;5030779;28;20112;-69
2022/04/26 03:56:01;;;;;;;5.68;3.55;;;18.90;62.70;;;;;;5032106;28;20025;-69
2022/04/26 03:58:28;;;;;;;7.18;3.42;;;18.90;62.70;;;;;;5031905;28;20079;-69
2022/04/26 04:00:54;;;;;;;6.85;3.30;;;18.90;62.70;;;;;;5030815;28;20056;-69
2022/04/26 04:03:20;;;;;;;8.50;3.92;;;18.90;62.70;;;;;;5030747;28;20060;-69
2022/04/26 04:05:45;;;;;;;5.85;3.38;;;18.90;63.70;;;;;;5030594;28;20033;-69
2022/04/26 04:08:11;;;;;;;5.85;3.22;;;18.90;62.70;;;;;;5030730;28;20036;-69
2022/04/26 04:10:37;;;;;;;6.07;3.45;;;18.90;62.70;;;;;;5030962;28;20037;-68
2022/04/26 04:13:02;;;;;;;6.65;3.33;;;18.90;62.70;;;;;;5031770;28;20024;-69
2022/04/26 04:15:28;;;;;;;6.32;3.60;;;18.90;62.70;;;;;;5031945;28;20030;-69
2022/04/26 04:17:53;;;;;;;5.75;3.20;;;18.90;62.70;;;;;;5032067;28;20021;-69
2022/04/26 04:20:19;;;;;;;7.78;3.08;;;18.90;62.80;;;;;;5031859;28;20037;-69
2022/04/26 04:22:48;;;;;;;5.40;3.33;;;18.90;62.80;;;;;;5032036;28;20047;-68
2022/04/26 04:25:14;;;;;;;5.20;3.10;;;18.90;62.80;;;;;;5031935;28;20048;-68
2022/04/26 04:27:39;;;;;;;5.55;3.28;;;18.90;62.80;;;;;;5031721;28;20376;-68
2022/04/26 04:30:05;;;;;;;5.22;2.92;;;18.80;62.70;;;;;;5030526;28;20032;-69
2022/04/26 04:32:31;;;;;;;4.65;3.00;;;18.90;63.90;;;;;;5031591;28;20022;-69
2022/04/26 04:34:57;;;;;;;4.45;3.35;;;18.80;62.70;;;;;;5030715;28;20546;-69
2022/04/26 04:37:22;;;;;;;6.03;3.30;;;18.80;62.80;;;;;;5035079;28;20079;-69
2022/04/26 04:39:49;;;;;;;5.70;3.15;;;18.80;62.80;;;;;;5033973;28;20056;-69
2022/04/26 04:42:15;;;;;;;5.05;3.50;;;18.80;62.80;;;;;;5035010;28;20022;-69
2022/04/26 04:44:40;;;;;;;6.47;3.40;;;18.80;62.90;;;;;;5035285;28;20025;-69
2022/04/26 04:47:06;;;;;;;5.25;2.95;;;18.80;62.80;;;;;;5017067;28;20116;-69
2022/04/26 04:49:32;;;;;;;4.97;3.03;;;18.90;62.90;;;;;;5034920;28;20052;-69
2022/04/26 04:51:58;;;;;;;5.55;3.13;;;18.80;62.90;;;;;;5035134;28;20052;-69
2022/04/26 04:54:23;;;;;;;5.18;3.28;;;18.80;62.90;;;;;;5034792;28;20030;-69
2022/04/26 04:56:49;;;;;;;4.65;3.20;;;18.80;62.90;;;;;;5034943;28;20025;-69
2022/04/26 04:59:16;;;;;;;5.30;2.97;;;18.80;62.90;;;;;;5034760;28;20038;-69
2022/04/26 05:01:42;;;;;;;4.35;3.08;;;18.80;63.00;;;;;;5034852;28;20025;-69
2022/04/26 05:04:07;;;;;;;6.00;3.00;;;18.80;62.90;;;;;;5033677;28;20117;-69
2022/04/26 05:06:33;;;;;;;4.32;2.70;;;18.80;62.90;;;;;;5033133;28;20377;-69
2022/04/26 05:08:59;;;;;;;5.50;3.35;;;18.80;63.00;;;;;;5033524;28;20545;-69
2022/04/26 05:11:24;;;;;;;5.47;3.17;;;18.80;62.90;;;;;;5034421;28;20022;-69
2022/04/26 05:13:50;;;;;;;5.97;2.88;;;18.80;62.90;;;;;;5034304;28;20033;-69
2022/04/26 05:16:16;;;;;;;4.82;3.20;;;18.80;63.00;;;;;;5033170;28;20357;-69
2022/04/26 05:18:41;;;;;;;5.57;3.38;;;18.80;63.00;;;;;;5033408;28;20026;-69
2022/04/26 05:21:10;;;;;;;3.28;2.75;;;18.80;63.00;;;;;;5034232;28;20071;-69
2022/04/26 05:26:20;;;;;;;3.80;2.75;;;18.80;63.00;;;;;;5033584;28;20103;-69
2022/04/26 05:28:46;;;;;;;2.97;2.60;;;18.80;63.10;;;;;;5032885;28;20068;-69
2022/04/26 05:31:11;;;;;;;4.60;3.03;;;18.70;63.00;;;;;;5034055;28;20017;-69
2022/04/26 05:33:37;;;;;;;4.88;3.10;;;18.70;63.00;;;;;;5034242;28;20538;-69
2022/04/26 05:36:03;;;;;;;3.10;2.50;;;18.70;63.00;;;;;;5034240;28;20096;-68
2022/04/26 05:38:30;;;;;;;16.38;2.53;;;18.70;63.00;;;;;;5030520;28;20064;-69
2022/04/26 05:40:57;;;;;;;5.45;2.80;;;18.80;63.10;;;;;;5029623;28;20158;-68
2022/04/26 05:43:23;;;;;;;5.53;3.42;;;18.70;63.10;;;;;;5033492;28;20026;-68
2022/04/26 05:45:49;;;;;;;3.50;2.83;;;18.70;63.00;;;;;;5033526;28;20031;-68
2022/04/26 05:48:15;;;;;;;4.55;2.65;;;18.70;63.10;;;;;;5030534;28;20108;-68
2022/04/26 05:50:41;;;;;;;3.78;2.78;;;18.70;63.00;;;;;;5033719;28;20509;-68
2022/04/26 05:53:06;;;;;;;3.80;2.90;;;18.70;63.10;;;;;;5032226;28;20444;-68
2022/04/26 05:55:32;;;;;;;5.72;3.35;;;18.80;63.10;;;;;;5033929;28;20483;-68
2022/04/26 05:58:01;;;;;;;6.45;3.08;;;18.70;63.10;;;;;;5032525;28;20029;-68
2022/04/26 06:00:28;;;;;;;5.75;2.67;;;18.70;63.10;;;;;;5033769;28;20018;-68
2022/04/26 06:02:55;;;;;;;3.05;2.60;;;18.70;63.20;;;;;;5032782;28;20034;-68
2022/04/26 06:05:21;;;;;;;4.63;2.88;;;18.70;63.20;;;;;;5033496;28;20029;-68
2022/04/26 06:07:47;;;;;;;5.22;2.60;;;18.80;63.20;;;;;;5033697;28;20117;-69
2022/04/26 06:10:12;;;;;;;3.85;2.85;;;18.80;63.20;;;;;;5033921;28;20057;-68
2022/04/26 06:12:39;;;;;;;4.20;2.67;;;18.70;63.20;;;;;;5033750;28;20044;-68
2022/04/26 06:15:05;;;;;;;6.35;2.92;;;18.70;63.20;;;;;;5033834;28;20018;-69
2022/04/26 06:17:32;;;;;;;5.43;2.83;;;18.70;63.20;;;;;;5016364;28;20029;-69
2022/04/26 06:19:59;;;;;;;3.67;2.13;;;18.70;63.00;;;;;;5033600;28;20458;-69
2022/04/26 06:22:25;;;;;;;2.53;2.20;;;18.70;62.80;;;;;;5033454;28;20025;-69
2022/04/26 06:24:52;;;;;;;4.82;2.25;;;18.60;62.80;;;;;;5033596;28;20496;-69
2022/04/26 06:27:18;;;;;;;3.85;2.75;;;18.60;62.80;;;;;;5033739;28;20029;-68
2022/04/26 06:29:44;;;;;;;3.45;2.33;;;18.60;62.80;;;;;;5033876;28;20021;-69
2022/04/26 06:32:10;;;;;;;3.80;2.38;;;18.60;62.80;;;;;;5046050;28;20492;-69
2022/04/26 06:34:35;;;;;;;2.35;2.10;;;18.60;62.70;;;;;;5039862;28;20487;-69
2022/04/26 06:37:01;;;;;;;4.78;2.40;;;18.60;62.70;;;;;;5036758;28;20017;-69
2022/04/26 06:39:26;;;;;;;4.05;2.20;;;18.50;62.70;;;;;;5031259;28;20515;-69
2022/04/26 06:41:52;;;;;;;3.95;2.40;;;18.50;62.70;;;;;;5030060;28;20025;-69
2022/04/26 06:44:18;;;;;;;2.58;1.90;;;18.50;62.60;;;;;;5031465;28;20018;-69
2022/04/26 06:46:43;;;;;;;3.97;2.40;;;18.50;62.60;;;;;;5030411;28;20017;-69
2022/04/26 06:49:09;;;;;;;7.35;2.35;;;18.50;62.60;;;;;;5046852;28;20489;-69
2022/04/26 06:51:35;;;;;;;3.55;2.53;;;18.50;62.50;;;;;;5039455;28;20381;-68
2022/04/26 06:54:01;;;;;;;5.05;2.83;;;18.50;62.50;;;;;;5021756;28;20069;-69
2022/04/26 06:56:27;;;;;;;10.52;2.97;;;18.50;62.50;;;;;;5010256;28;20080;-69
2022/04/26 06:58:52;;;;;;;8.38;3.45;;;18.50;62.50;;;;;;5010545;28;20424;-69
2022/04/26 07:01:18;;;;;;;5.97;2.78;;;18.50;62.50;;;;;;5012017;28;20033;-69
2022/04/26 07:03:44;;;;;;;9.52;2.70;;;18.50;62.50;;;;;;5012058;28;20397;-69
2022/04/26 07:06:09;;;;;;;8.02;2.30;;;18.50;63.50;;;;;;5012403;28;20033;-69
2022/04/26 07:08:35;;;;;;;9.25;3.30;;;18.50;62.50;;;;;;5012431;28;20034;-69
2022/04/26 07:11:01;;;;;;;7.88;2.70;;;18.50;62.50;;;;;;5012604;28;20022;-69
2022/04/26 07:13:27;;;;;;;8.35;2.65;;;18.50;62.50;;;;;;5022047;28;20010;-69
2022/04/26 07:15:52;;;;;;;6.47;3.10;;;18.50;62.50;;;;;;5032120;28;20026;-69
2022/04/26 07:18:18;;;;;;;6.78;3.38;;;18.40;62.50;;;;;;5031354;28;20388;-69
2022/04/26 07:20:44;;;;;;;6.40;2.67;;;18.50;62.50;;;;;;5032306;28;20472;-69
2022/04/26 07:23:11;;;;;;;10.02;2.65;;;18.40;62.40;;;;;;5031619;28;20377;-69
2022/04/26 07:25:37;;;;;;;8.38;2.75;;;18.40;62.40;;;;;;5014022;28;20060;-69
2022/04/26 07:28:03;;;;;;;4.85;2.53;;;18.40;62.40;;;;;;5032299;28;20448;-69
2022/04/26 07:30:34;;;;;;;8.18;3.08;;;18.40;62.40;;;;;;5030761;28;20111;-69
2022/04/26 07:35:48;;;;;;;5.70;2.90;;;18.40;62.30;;;;;;5031450;28;20083;-69
2022/04/26 07:38:14;;;;;;;6.82;3.22;;;18.40;62.50;;;;;;5032220;28;20022;-69
2022/04/26 07:40:39;;;;;;;4.10;2.45;;;18.40;62.40;;;;;;5019007;28;20046;-69
2022/04/26 07:43:06;;;;;;;8.77;2.60;;;18.40;62.50;;;;;;5044294;28;20022;-69
2022/04/26 07:45:31;;;;;;;4.68;2.42;;;18.40;62.40;;;;;;5044089;28;20080;-69
2022/04/26 07:47:58;;;;;;;8.15;2.88;;;18.40;62.40;;;;;;5025960;28;20108;-69
2022/04/26 07:50:24;;;;;;;7.22;2.60;;;18.40;62.40;;;;;;5030953;28;20021;-69
2022/04/26 07:52:49;;;;;;;5.55;2.58;;;18.30;62.40;;;;;;5030895;28;20021;-69
2022/04/26 07:55:15;;;;;;;6.00;2.50;;;18.40;62.40;;;;;;5032072;28;20030;-69
2022/04/26 07:57:41;;;;;;;5.38;2.70;;;18.30;62.40;;;;;;5030838;28;20076;-69
2022/04/26 08:00:07;;;;;;;5.20;2.95;;;18.30;62.30;;;;;;5031972;28;20034;-69
2022/04/26 08:02:33;;;;;;;6.93;2.65;;;18.30;62.30;;;;;;5031912;28;20488;-69
2022/04/26 08:05:01;;;;;;;4.93;3.03;;;18.30;62.30;;;;;;5030983;28;20040;-69
2022/04/26 08:07:30;;;;;;;5.35;3.05;;;18.30;62.30;;;;;;5030813;28;20026;-69
2022/04/26 08:09:56;;;;;;;5.35;2.83;;;18.30;62.30;;;;;;5030514;28;20021;-69
2022/04/26 08:12:21;;;;;;;4.93;2.50;;;18.30;62.30;;;;;;5034293;28;20092;-69
2022/04/26 08:14:47;;;;;;;6.30;2.92;;;18.30;62.40;;;;;;5034467;28;20026;-69
2022/04/26 08:17:15;;;;;;;5.45;2.47;;;18.30;63.40;;;;;;5034528;28;20099;-69
2022/04/26 08:19:41;;;;;;;6.72;2.60;;;18.30;62.30;;;;;;5034404;28;20492;-69
2022/04/26 08:22:07;;;;;;;4.72;2.60;;;18.30;62.40;;;;;;5034442;28;20041;-69
2022/04/26 08:27:24;;;;;;;6.40;2.58;;;18.30;62.40;;;;;;5035668;28;20108;-69
2022/04/26 08:29:51;;;;;;;3.33;2.40;;;18.30;62.40;;;;;;5018953;28;20443;-69
2022/04/26 08:32:16;;;;;;;5.75;3.00;;;18.30;62.40;;;;;;5034412;28;20013;-69
2022/04/26 08:34:42;;;;;;;4.97;2.30;;;18.30;62.40;;;;;;5034163;28;20377;-69
2022/04/26 08:37:11;;;;;;;5.35;2.67;;;18.30;62.40;;;;;;5033969;28;20049;-69
2022/04/26 08:39:36;;;;;;;7.18;2.85;;;18.30;62.30;;;;;;5034956;28;20574;-69
2022/04/26 08:42:03;;;;;;;4.00;2.63;;;18.20;62.30;;;;;;5034280;28;20021;-69
2022/04/26 08:44:29;;;;;;;6.57;3.00;;;18.30;62.30;;;;;;5017777;28;20488;-69
2022/04/26 08:52:27;;;;;;;6.00;2.42;;;18.30;62.30;;;;;;5034783;28;20099;-69
2022/04/26 08:54:53;;;;;;;6.13;2.83;;;18.30;62.30;;;;;;5035028;28;20464;-69
2022/04/26 08:57:18;;;;;;;5.78;2.92;;;18.30;62.40;;;;;;5035297;28;20036;-69
2022/04/26 08:59:48;;;;;;;5.30;2.70;;;18.20;62.30;;;;;;5034775;28;20072;-69
2022/04/26 09:02:19;;;;;;;3.80;2.70;;;18.30;62.40;;;;;;5033577;28;20037;-69
2022/04/26 09:04:48;;;;;;;5.00;2.58;;;18.20;62.30;;;;;;5033598;28;20447;-69
2022/04/26 09:07:28;;;;;;;3.40;2.38;;;18.20;62.30;;;;;;5033537;28;20021;-69
2022/04/26 09:10:08;;;;;;;2.67;2.03;;;18.30;62.20;;;;;;5034755;28;20022;-69
2022/04/26 09:13:04;;;;;;;7.32;2.80;;;18.30;62.20;;;;;;5033460;28;20109;-69
2022/04/26 09:15:34;;;;;;;6.28;2.75;;;18.30;62.30;;;;;;5014802;28;20029;-69
2022/04/26 09:18:29;;;;;;;5.95;2.55;;;18.20;62.40;;;;;;5013795;28;20033;-69
2022/04/26 09:21:09;;;;;;;4.53;2.70;;;18.30;62.30;;;;;;5018283;28;20017;-69
2022/04/26 09:23:35;;;;;;;7.90;2.47;;;18.20;62.40;;;;;;5033317;28;20018;-69
2022/04/26 09:26:07;;;;;;;5.32;2.60;;;18.20;62.40;;;;;;5016875;28;20156;-69
2022/04/26 09:28:33;;;;;;;4.73;2.10;;;18.20;62.30;;;;;;5034338;28;20041;-69
2022/04/26 09:30:59;;;;;;;5.13;2.50;;;18.20;62.30;;;;;;5034252;28;20104;-69
2022/04/26 09:33:31;;;;;;;3.00;2.33;;;18.20;62.30;;;;;;5034413;28;20021;-69
2022/04/26 09:36:01;;;;;;;2.90;2.20;;;18.20;62.30;;;;;;5034074;28;20112;-69
2022/04/26 09:38:31;;;;;;;4.13;2.35;;;18.10;62.20;;;;;;5016686;28;20025;-69
2022/04/26 09:40:59;;;;;;;3.33;2.38;;;18.20;62.30;;;;;;5034127;28;20057;-69
2022/04/26 09:43:26;;;;;;;5.15;2.08;;;18.20;62.30;;;;;;5034338;28;20018;-69
2022/04/26 09:45:57;;;;;;;4.40;2.35;;;18.20;62.30;;;;;;5034076;28;20052;-69
2022/04/26 09:48:36;;;;;;;4.45;2.22;;;18.20;62.30;;;;;;5016451;28;20036;-69
2022/04/26 09:51:03;;;;;;;3.72;2.47;;;18.20;63.30;;;;;;5017103;28;20044;-69
2022/04/26 09:53:32;;;;;;;2.53;2.33;;;18.20;62.30;;;;;;5032937;28;20115;-69
2022/04/26 09:56:01;;;;;;;4.85;2.30;;;18.20;62.30;;;;;;5032911;28;20033;-69
2022/04/26 09:58:27;;;;;;;4.28;2.35;;;18.20;62.30;;;;;;5033816;28;20484;-69
2022/04/26 10:00:54;;;;;;;5.95;2.50;;;18.20;62.30;;;;;;5032472;28;20033;-69
2022/04/26 10:03:25;;;;;;;5.80;2.55;;;18.20;62.30;;;;;;5016392;28;20555;-69
2022/04/26 10:05:53;;;;;;;4.50;2.53;;;18.10;62.20;;;;;;5032285;28;20036;-69
2022/04/26 10:08:19;;;;;;;4.82;2.50;;;18.20;62.20;;;;;;5032114;28;20496;-69
2022/04/26 10:10:45;;;;;;;3.42;2.55;;;18.10;62.20;;;;;;5015984;28;20104;-69
2022/04/26 10:15:55;;;;;;;3.88;2.13;;;18.20;62.20;;;;;;5032465;28;20041;-69
2022/04/26 10:18:31;;;;;;;5.03;2.50;;;18.20;62.30;;;;;;5032102;28;20030;-69
2022/04/26 10:20:57;;;;;;;3.75;2.10;;;18.20;62.20;;;;;;5033091;28;20064;-69
2022/04/26 10:23:23;;;;;;;3.15;2.05;;;18.20;62.30;;;;;;5032326;28;20024;-69
2022/04/26 10:26:13;;;;;;;4.20;2.30;;;18.20;63.30;;;;;;5033184;28;20165;-69
2022/04/26 10:29:02;;;;;;;4.40;2.30;;;18.20;62.10;;;;;;5033060;28;20041;-69
2022/04/26 10:31:47;;;;;;;3.60;2.10;;;18.20;62.20;;;;;;5033079;28;20100;-69
2022/04/26 10:34:34;;;;;;;3.45;2.42;;;18.20;62.30;;;;;;5032699;28;20030;-69
2022/04/26 10:37:06;;;;;;;4.07;1.98;;;18.20;62.10;;;;;;5033174;28;20017;-69
2022/04/26 10:39:50;;;;;;;2.95;1.90;;;18.20;62.30;;;;;;5032919;28;20052;-69
2022/04/26 10:42:16;;;;;;;3.25;2.10;;;18.10;62.20;;;;;;5032170;28;20025;-69
2022/04/26 10:44:45;;;;;;;2.63;1.90;;;18.10;62.30;;;;;;5032751;28;20041;-69
2022/04/26 10:47:18;;;;;;;4.25;2.33;;;18.10;62.30;;;;;;5031586;28;20022;-69
2022/04/26 10:49:45;;;;;;;3.95;2.33;;;18.10;62.30;;;;;;5032713;28;20040;-69
2022/04/26 10:52:22;;;;;;;2.60;2.10;;;18.10;62.20;;;;;;5032951;28;20018;-69
2022/04/26 10:55:03;;;;;;;2.90;2.28;;;18.10;62.30;;;;;;5032589;28;20050;-69
2022/04/26 10:57:33;;;;;;;1.95;1.60;;;18.10;62.20;;;;;;5032861;28;20025;-69
2022/04/26 11:00:10;;;;;;;2.85;2.25;;;18.10;62.20;;;;;;5032908;28;20033;-69
2022/04/26 11:02:38;;;;;;;4.28;2.40;;;18.10;62.20;;;;;;5031273;28;20432;-69
2022/04/26 11:05:11;;;;;;;3.15;2.03;;;18.10;62.20;;;;;;5015479;28;20036;-69
2022/04/26 11:07:57;;;;;;;3.80;2.60;;;18.10;62.20;;;;;;5032449;28;20113;-69
2022/04/26 11:10:24;;;;;;;3.97;2.35;;;18.20;62.10;;;;;;5031215;28;20094;-69
2022/04/26 11:12:51;;;;;;;3.13;1.73;;;18.10;62.20;;;;;;5032339;28;20018;-69
2022/04/26 11:15:20;;;;;;;3.50;2.03;;;18.10;62.20;;;;;;5031372;28;20017;-69
2022/04/26 11:17:46;;;;;;;2.42;2.00;;;18.10;62.20;;;;;;5031074;28;20022;-69
2022/04/26 11:20:24;;;;;;;1.83;1.55;;;18.10;62.20;;;;;;5032408;28;20027;-69
2022/04/26 11:22:55;;;;;;;2.67;2.17;;;18.20;62.20;;;;;;5031221;28;20025;-69
2022/04/26 11:28:10;;;;;;;5.30;2.28;;;18.10;62.20;;;;;;5032571;28;20060;-69
2022/04/26 11:30:37;;;;;;;3.95;2.20;;;18.10;62.20;;;;;;5031222;28;20021;-69
2022/04/26 11:33:12;;;;;;;2.33;2.13;;;18.10;62.20;;;;;;5030820;28;20022;-69
2022/04/26 11:35:42;;;;;;;3.58;2.17;;;18.10;62.20;;;;;;5032343;28;20064;-69
2022/04/26 11:38:13;;;;;;;3.00;2.08;;;18.10;62.30;;;;;;5032342;28;20021;-69
2022/04/26 11:40:41;;;;;;;3.25;2.08;;;18.10;62.20;;;;;;5032051;28;20064;-69
2022/04/26 11:43:14;;;;;;;6.15;2.30;;;18.10;62.20;;;;;;5031099;28;20025;-69
2022/04/26 11:45:41;;;;;;;2.30;1.80;;;18.10;62.20;;;;;;5031766;28;20036;-69
2022/04/26 11:48:08;;;;;;;3.50;1.75;;;18.10;62.20;;;;;;5035262;28;20025;-69
2022/04/26 11:50:33;;;;;;;4.05;2.05;;;18.10;62.20;;;;;;5034978;28;20388;-69
2022/04/26 11:53:00;;;;;;;3.67;2.03;;;18.10;62.20;;;;;;5036045;28;20101;-69
2022/04/26 11:55:28;;;;;;;2.70;1.90;;;18.10;62.20;;;;;;5035243;28;20037;-69
2022/04/26 11:58:07;;;;;;;2.65;1.83;;;18.10;62.20;;;;;;5035998;28;20021;-69
2022/04/26 12:00:33;;;;;;;1.92;1.65;;;18.10;62.30;;;;;;5034682;28;20053;-69
2022/04/26 12:02:59;;;;;;;2.53;1.80;;;18.10;62.20;;;;;;5035881;28;20064;-69
2022/04/26 12:05:25;;;;;;;3.10;2.30;;;18.10;62.20;;;;;;5018533;28;20033;-69
2022/04/26 12:07:50;;;;;;;2.65;2.10;;;18.10;62.20;;;;;;5034494;28;20032;-69
2022/04/26 12:10:35;;;;;;;2.08;1.88;;;18.10;62.20;;;;;;5034648;28;20026;-69
2022/04/26 12:13:02;;;;;;;1.85;1.60;;;18.10;62.10;;;;;;5035538;28;20045;-69
2022/04/26 12:15:29;;;;;;;2.20;2.00;;;18.10;62.30;;;;;;5034535;28;20061;-69
2022/04/26 12:18:06;;;;;;;3.50;1.80;;;18.10;62.30;;;;;;5035667;28;20013;-69
2022/04/26 12:20:33;;;;;;;3.45;1.95;;;18.20;62.30;;;;;;5034362;28;20103;-69
2022/04/26 12:22:58;;;;;;;2.70;1.73;;;18.10;62.30;;;;;;5034340;28;20764;-69
2022/04/26 12:25:24;;;;;;;2.85;1.90;;;18.10;62.30;;;;;;5018145;28;20541;-69
2022/04/26 12:28:06;;;;;;;2.58;2.03;;;18.10;62.30;;;;;;5035554;28;20033;-69
2022/04/26 12:30:32;;;;;;;3.15;1.98;;;18.10;62.20;;;;;;5017707;28;20037;-69
2022/04/26 12:32:58;;;;;;;2.17;1.95;;;18.10;62.30;;;;;;5034251;28;20029;-69
2022/04/26 12:35:24;;;;;;;1.85;1.75;;;18.10;62.40;;;;;;5034341;28;20025;-69
2022/04/26 12:38:03;;;;;;;3.55;2.03;;;18.10;62.40;;;;;;5034076;28;20033;-69
2022/04/26 12:40:29;;;;;;;2.65;2.00;;;18.20;62.30;;;;;;5033311;28;20045;-69
2022/04/26 12:42:57;;;;;;;2.00;1.80;;;18.10;62.30;;;;;;5034175;28;20101;-69
2022/04/26 12:45:23;;;;;;;2.47;1.98;;;18.10;62.40;;;;;;5033952;28;20021;-69
2022/04/26 12:50:51;;;;;;;2.40;1.83;;;18.20;62.30;;;;;;5033121;28;20075;-69
2022/04/26 12:53:21;;;;;;;2.80;1.73;;;18.10;62.40;;;;;;5016620;28;20023;-69
2022/04/26 12:55:47;;;;;;;2.30;1.70;;;18.10;62.40;;;;;;5032621;28;20018;-69
2022/04/26 12:58:14;;;;;;;2.00;1.80;;;18.10;62.40;;;;;;5033284;28;20100;-69
2022/04/26 13:00:47;;;;;;;2.17;1.67;;;18.10;62.40;;;;;;5032799;28;20022;-69
2022/04/26 13:03:14;;;;;;;2.33;1.73;;;18.10;62.40;;;;;;5032633;28;20025;-69
2022/04/26 13:05:45;;;;;;;2.33;1.77;;;18.10;62.40;;;;;;5016168;28;20030;-69
2022/04/26 13:08:11;;;;;;;2.50;1.88;;;18.10;62.40;;;;;;5032548;28;20017;-69
2022/04/26 13:10:37;;;;;;;3.63;2.10;;;18.10;62.40;;;;;;5032634;28;20056;-69
2022/04/26 13:13:03;;;;;;;2.03;1.65;;;18.10;62.40;;;;;;5033312;28;20021;-69
2022/04/26 13:15:29;;;;;;;1.92;1.77;;;18.10;62.40;;;;;;5033737;28;20033;-69
2022/04/26 13:17:55;;;;;;;3.20;1.80;;;18.10;62.40;;;;;;5033305;28;20018;-69
2022/04/26 13:20:20;;;;;;;2.33;1.90;;;18.10;62.40;;;;;;5032350;28;20032;-69
2022/04/26 13:22:46;;;;;;;2.10;1.90;;;18.10;62.40;;;;;;5032189;28;20025;-69
2022/04/26 13:25:11;;;;;;;1.83;1.73;;;18.20;62.50;;;;;;5033475;28;20030;-69
2022/04/26 13:27:38;;;;;;;2.80;1.75;;;18.10;62.40;;;;;;5031956;28;20030;-69
2022/04/26 13:30:05;;;;;;;2.03;1.80;;;18.20;62.50;;;;;;5033249;28;20021;-69
2022/04/26 13:32:30;;;;;;;1.85;1.55;;;18.20;62.50;;;;;;5015831;28;20029;-69
2022/04/26 13:34:59;;;;;;;1.92;1.73;;;18.20;62.50;;;;;;5033257;28;20534;-69
2022/04/26 13:37:25;;;;;;;2.38;1.95;;;18.20;62.50;;;;;;5032151;28;20104;-69
2022/04/26 13:39:51;;;;;;;3.13;1.67;;;18.20;62.50;;;;;;5020280;28;286364;-69
2022/04/26 13:42:17;;;;;;;2.38;1.77;;;18.10;62.50;;;;;;5033113;28;20552;-69
2022/04/26 13:44:43;;;;;;;3.45;1.77;;;18.20;62.50;;;;;;5033023;28;20450;-69
2022/04/26 13:47:09;;;;;;;2.30;1.90;;;18.10;62.40;;;;;;5033965;28;20029;-69
2022/04/26 13:49:35;;;;;;;2.22;1.80;;;18.10;62.40;;;;;;5016270;28;20037;-69
2022/04/26 13:52:04;;;;;;;1.88;1.70;;;18.20;62.50;;;;;;5016283;28;20022;-69
2022/04/26 13:54:29;;;;;;;3.67;2.15;;;18.10;62.50;;;;;;5033955;28;20655;-69
2022/04/26 13:56:56;;;;;;;1.92;1.75;;;18.20;62.50;;;;;;5016057;28;20052;-69
2022/04/26 13:59:22;;;;;;;2.25;2.05;;;18.20;62.50;;;;;;5016281;28;20499;-69
2022/04/26 14:01:49;;;;;;;2.65;1.80;;;18.20;62.60;;;;;;5032450;28;20025;-69
2022/04/26 14:04:15;;;;;;;1.67;1.58;;;18.20;62.50;;;;;;5032501;28;20017;-69
2022/04/26 14:06:41;;;;;;;1.92;1.70;;;18.20;62.60;;;;;;5033738;28;20108;-69
2022/04/26 14:09:07;;;;;;;1.67;1.55;;;18.20;62.60;;;;;;5032568;28;20128;-69
2022/04/26 14:11:33;;;;;;;3.42;1.70;;;18.20;62.60;;;;;;5033398;28;20496;-69
2022/04/26 14:22:32;;;;;;;1.95;1.80;;;18.10;62.60;;;;;;5031085;28;20032;-69
2022/04/26 14:25:03;;;;;;;2.08;1.90;;;18.20;62.80;;;;;;5015314;28;20042;-69
2022/04/26 14:27:29;;;;;;;2.00;1.77;;;18.10;62.70;;;;;;5014905;28;20535;-69
2022/04/26 14:29:55;;;;;;;1.85;1.73;;;18.20;62.70;;;;;;5014522;28;20422;-69
2022/04/26 14:32:21;;;;;;;2.08;1.90;;;18.20;62.70;;;;;;5014567;28;20026;-69
2022/04/26 14:34:47;;;;;;;2.33;1.90;;;18.20;62.70;;;;;;5014549;28;20029;-69
2022/04/26 14:37:12;;;;;;;2.63;1.98;;;18.20;62.70;;;;;;5014453;28;20104;-69
2022/04/26 14:39:38;;;;;;;1.73;1.63;;;18.20;62.70;;;;;;5030478;28;20506;-69
2022/04/26 14:42:05;;;;;;;1.80;1.70;;;18.20;62.70;;;;;;5014500;28;20033;-69
2022/04/26 14:44:30;;;;;;;3.58;2.08;;;18.20;62.70;;;;;;5030829;28;20080;-69
2022/04/26 14:46:56;;;;;;;1.70;1.60;;;18.20;62.70;;;;;;5014217;28;20106;-69
2022/04/26 14:49:22;;;;;;;1.77;1.45;;;18.20;62.70;;;;;;5030907;28;20043;-69
2022/04/26 14:51:47;;;;;;;2.97;2.00;;;18.20;62.70;;;;;;5030661;28;20094;-69
2022/04/26 14:54:13;;;;;;;2.05;1.60;;;18.20;62.70;;;;;;5013754;28;20041;-69
2022/04/26 14:56:39;;;;;;;4.00;2.20;;;18.20;62.70;;;;;;5020302;28;20026;-69
2022/04/26 14:59:07;;;;;;;1.90;1.70;;;18.20;62.70;;;;;;5011945;28;20030;-69
2022/04/26 15:01:34;;;;;;;1.95;1.77;;;18.20;62.70;;;;;;5012930;28;20025;-69
2022/04/26 15:03:59;;;;;;;1.98;1.85;;;18.30;62.80;;;;;;5011804;28;20037;-69
2022/04/26 15:06:25;;;;;;;2.35;1.85;;;18.20;62.70;;;;;;5028027;28;20030;-69
2022/04/26 15:11:35;;;;;;;2.80;2.25;;;18.30;62.80;;;;;;5012973;28;20575;-69
2022/04/26 15:16:47;;;;;;;2.65;2.00;;;18.30;63.90;;;;;;5031751;28;20068;-69
2022/04/26 15:19:14;;;;;;;2.15;1.95;;;18.20;62.80;;;;;;5032320;28;20550;-69
2022/04/26 15:21:42;;;;;;;2.20;2.00;;;18.20;62.80;;;;;;5032408;28;20376;-69
2022/04/26 15:24:07;;;;;;;2.75;1.90;;;18.30;62.80;;;;;;5031108;28;20021;-69
2022/04/26 15:26:34;;;;;;;2.00;1.90;;;18.20;62.80;;;;;;5031369;28;20044;-69
2022/04/26 15:29:00;;;;;;;2.10;1.90;;;18.30;62.90;;;;;;5032052;28;20030;-69
2022/04/26 15:31:26;;;;;;;2.13;1.90;;;18.30;62.90;;;;;;5031298;28;20021;-69
2022/04/26 15:33:52;;;;;;;2.08;1.85;;;18.30;62.90;;;;;;5031087;28;20025;-69
2022/04/26 15:36:18;;;;;;;3.50;2.17;;;18.30;62.90;;;;;;5031096;28;20024;-69
2022/04/26 15:38:45;;;;;;;2.53;2.30;;;18.30;62.90;;;;;;5031186;28;20033;-69
2022/04/26 15:41:11;;;;;;;2.75;1.90;;;18.30;62.90;;;;;;5030849;28;20572;-69
2022/04/26 15:43:37;;;;;;;3.00;2.53;;;18.30;62.90;;;;;;5030992;28;20053;-69
2022/04/26 15:46:04;;;;;;;1.60;1.50;;;18.30;62.90;;;;;;5014813;28;20060;-69
2022/04/26 15:48:30;;;;;;;1.90;1.80;;;18.30;62.90;;;;;;5029239;28;20044;-69
2022/04/26 15:50:56;;;;;;;2.08;1.73;;;18.30;63.00;;;;;;5020958;28;20021;-68
2022/04/26 15:53:22;;;;;;;1.90;1.80;;;18.40;63.00;;;;;;5007446;28;20491;-68
2022/04/26 15:55:48;;;;;;;3.00;1.85;;;18.40;63.00;;;;;;5040494;28;20028;-68
2022/04/26 15:58:14;;;;;;;3.28;2.22;;;18.30;62.90;;;;;;5038634;28;20461;-68
2022/04/26 16:00:40;;;;;;;2.67;1.88;;;18.30;62.90;;;;;;5030285;28;20492;-68
2022/04/26 16:03:06;;;;;;;2.15;1.92;;;18.30;62.80;;;;;;5029631;28;20079;-68
2022/04/26 16:05:32;;;;;;;2.28;2.08;;;18.30;62.90;;;;;;5014143;28;20067;-68
2022/04/26 16:07:58;;;;;;;2.28;2.08;;;18.40;63.00;;;;;;5031444;28;20030;-68
2022/04/26 16:21:25;;;;;;;4.28;2.45;;;18.30;62.90;;;;;;5012435;28;20120;-68
2022/04/26 16:23:52;;;;;;;2.47;2.20;;;18.30;63.00;;;;;;5012738;28;20030;-68
2022/04/26 16:26:19;;;;;;;2.47;2.20;;;18.30;63.00;;;;;;5044496;28;20025;-68
2022/04/26 16:28:46;;;;;;;2.47;2.28;;;18.30;63.00;;;;;;5031023;28;20042;-68
2022/04/26 16:31:13;;;;;;;2.72;2.53;;;18.30;62.90;;;;;;5032235;28;20096;-68
2022/04/26 16:33:38;;;;;;;3.40;2.00;;;18.30;62.90;;;;;;5035980;28;20368;-68
2022/04/26 16:36:04;;;;;;;3.88;2.60;;;18.40;62.90;;;;;;5035938;28;20022;-68
2022/04/26 16:38:31;;;;;;;2.30;2.10;;;18.40;62.90;;;;;;5023244;28;20040;-68
2022/04/26 16:40:57;;;;;;;3.25;2.45;;;18.40;62.90;;;;;;5024339;28;20089;-68
2022/04/26 16:43:23;;;;;;;4.32;2.63;;;18.40;62.90;;;;;;5021586;28;20121;-68
2022/04/26 16:45:51;;;;;;;2.92;2.40;;;18.40;62.90;;;;;;5020165;28;20061;-69
2022/04/26 16:48:17;;;;;;;3.17;2.75;;;18.40;62.90;;;;;;5014727;28;20026;-69
2022/04/26 16:50:43;;;;;;;3.65;2.17;;;18.40;62.90;;;;;;5016039;28;20022;-69
2022/04/26 16:53:08;;;;;;;4.22;2.40;;;18.40;62.90;;;;;;5014654;28;20033;-68
2022/04/26 16:55:34;;;;;;;3.53;2.35;;;18.40;62.90;;;;;;5018245;28;20022;-72
2022/04/26 16:58:01;;;;;;;3.20;2.38;;;18.40;62.90;;;;;;5036091;28;20112;-73
2022/04/26 17:00:28;;;;;;;2.65;2.38;;;18.40;63.00;;;;;;5036488;28;20108;-72
2022/04/26 17:02:54;;;;;;;2.90;2.60;;;18.50;63.10;;;;;;5034080;28;20056;-72
2022/04/26 17:05:22;;;;;;;2.95;2.47;;;18.50;63.10;;;;;;5018414;28;20084;-72
2022/04/26 17:07:51;;;;;;;4.03;2.53;;;18.60;63.00;;;;;;5023898;28;20121;-74
2022/04/26 17:10:17;;;;;;;4.47;2.80;;;18.60;63.00;;;;;;5047090;28;20021;-75